SLEMCNARY FLD
METARs for airports near SLE, sorted by distance:
N 0 nm 213' KSLE 032156Z 18015G20KT 10SM BKN009 BKN015 05/03 A2978
N 18 nm 162' KMMV 032241Z 10SM BKN014 OVC100 03/02 A2977
NE 22 nm 199' KUAO 032153Z 20011KT 170V230 8SM -RA BKN013 BKN020 OVC038 04/03 A2977
SW 27 nm 249' KCVO 032156Z 20012KT 10SM FEW010 BKN065 04/02 A2981
N 38 nm 207' KHIO 032154Z 22009KT 10SM BKN010 BKN015 OVC022 05/03 A2974
N 44 nm 30' KPDX 032153Z 20013G21KT 10SM BKN022 BKN046 BKN070 07/02 A2976
N 45 nm 28' KVUO 032153Z 19008KT 10SM OVC020 06/02 A2977
NW 45 nm 39' KTMK 021935Z 14010KT 10SM BKN028 BKN033 OVC055 04/04 A2954
NE 46 nm 38' KTTD 032216Z 22013KT 10SM FEW020 BKN028 BKN050 07/03 A2976
S 47 nm 373' KEUG 032154Z 15012KT 9SM -RA SCT012 BKN029 OVC060 04/03 A2982
SW 49 nm 160' KONP 032235Z 19011G18KT 05/03 A2980
N 52 nm 58' KSPB 032153Z 00000KT 9SM -RA BKN027 OVC035 04/02 A2976
N 72 nm 20' KKLS 032207Z 16007KT 10SM -RA SCT007 BKN041 OVC055 03/02 A2976
NW 83 nm 14' KAST 032239Z 10SM FEW027 SCT033 BKN046 05/03 A2972
NE 88 nm 246' KDLS 032153Z 34006KT 10SM FEW055 BKN070 BKN090 08/M01 A2971
SE 88 nm 3081' KRDM 032156Z 24009KT 10SM SCT065 BKN090 06/M08 A2965
SE 91 nm 3459' KBDN 032235Z 24011G17KT 10SM FEW050 FEW090 04/M08 A2965
TAFs for airports near SLE, sorted by distance:
N 0 nm 213' KSLE KSLE 032104Z 0321/0418 18013G24KT P6SM -SHRA BKN009 OVC025
  FM040100 19010KT P6SM -SHRA BKN015 OVC030
  FM040800 18007KT P6SM -SHRASN BKN015 OVC025
NE 22 nm 199' KUAO KUAO 031744Z 0318/0418 19010G20KT P6SM -SHRA BKN015 BKN070
  FM032000 19010KT P6SM -SHRA SCT015 OVC025
  FM040400 20005KT P6SM -SHRA SCT025 BKN030
  FM040800 20004KT P6SM -SHRASN OVC015
N 38 nm 207' KHIO KHIO 032058Z 0321/0418 17008KT 6SM -SHRA BR BKN008 BKN015
  FM040000 20009KT P6SM -SHRA SCT015 BKN025 OVC035
  FM040400 21005KT P6SM -SHRA BKN025 OVC035
  FM040800 21002KT P6SM -SHRASN OVC015
N 44 nm 30' KPDX KPDX 032053Z 0321/0418 20012KT P6SM -SHRA SCT015 BKN035 OVC050
  TEMPO 0401/0403 BKN025 OVC030
  FM040800 20005KT P6SM -SHRASN BKN025 OVC035
  FM041400 17004KT P6SM -SHRA SCT008 OVC015
NE 46 nm 38' KTTD KTTD 031744Z 0318/0418 20004KT P6SM -SHRA SCT020 BKN045
  TEMPO 0318/0321 BKN020
  FM032200 20007KT P6SM -SHRA SCT025 OVC035
  FM040800 20005KT P6SM -SHRASN BKN025 OVC035
S 47 nm 373' KEUG KEUG 032101Z 0321/0418 16012KT 5SM -SHRA BR BKN025 OVC050
  FM040100 20010KT P6SM -SHRA SCT030 OVC050
  FM040400 13008KT P6SM -SHRA SCT015 BKN050
  FM040800 18006KT P6SM -SHRASN BKN025 OVC050
SW 49 nm 160' KONP KONP 031744Z 0318/0418 15007KT P6SM -SHRA VCTS SCT015CB BKN050
  TEMPO 0318/0322 BKN015CB
  FM032200 25010G20KT P6SM -SHRA SCT025 OVC050
  AMD LTD TO WIND
NW 83 nm 14' KAST TAF KAST 031744Z 0318/0418 22010KT P6SM -SHRA VCTS SCT025 OVC035CB
  TEMPO 0318/0322 5SM -SHRA SCT015 BKN025
  FM032300 26010KT P6SM -SHRA SCT025 OVC050
NE 88 nm 246' KDLS KDLS 031728Z 0318/0418 VRB02KT P6SM OVC070
  FM032000 31005KT P6SM VCSH OVC040
  TEMPO 0400/0404 -SHRASN
  FM041200 31004KT P6SM BKN250
  FM041600 31003KT P6SM OVC080
SE 88 nm 3081' KRDM TAF KRDM 031728Z 0318/0418 VRB06KT P6SM BKN040 BKN090
  FM040100 26012KT P6SM VCSH OVC050
  TEMPO 0401/0405 5SM -SHSN OVC030
  FM040700 19005KT P6SM BKN110
  FM041600 17008KT P6SM OVC050
SE 91 nm 3459' KBDN TAF KBDN 031741Z 0318/0418 20018KT P6SM BKN040 BKN090
  FM040100 22014G20KT 2SM -SHSN BR BKN015 OVC030
  FM040400 22016G22KT P6SM VCSH OVC040
  FM040700 22011G20KT P6SM BKN110
  FM041500 24012G24KT P6SM OVC050

Shortcut to this page: http://wxbay.com.

Data may contain errors.